sensor_id;sensor_type;location;lat;lon;timestamp;P1;durP1;ratioP1;P2;durP2;ratioP2
44987;SDS011;35735;52.226;21.254;2022-12-29T00:04:44;11.07;;;6.40;;
44987;SDS011;35735;52.226;21.254;2022-12-29T00:09:44;10.57;;;6.68;;
44987;SDS011;35735;52.226;21.254;2022-12-29T00:14:45;9.23;;;6.22;;
44987;SDS011;35735;52.226;21.254;2022-12-29T00:19:45;11.80;;;6.55;;
44987;SDS011;35735;52.226;21.254;2022-12-29T00:24:46;12.75;;;6.75;;
44987;SDS011;35735;52.226;21.254;2022-12-29T00:29:47;10.13;;;6.40;;
44987;SDS011;35735;52.226;21.254;2022-12-29T00:34:48;10.05;;;6.10;;
44987;SDS011;35735;52.226;21.254;2022-12-29T00:39:49;11.32;;;6.28;;
44987;SDS011;35735;52.226;21.254;2022-12-29T00:44:49;11.73;;;6.20;;
44987;SDS011;35735;52.226;21.254;2022-12-29T00:49:50;10.23;;;5.82;;
44987;SDS011;35735;52.226;21.254;2022-12-29T00:54:50;12.13;;;6.35;;
44987;SDS011;35735;52.226;21.254;2022-12-29T00:59:51;11.35;;;6.28;;
44987;SDS011;35735;52.226;21.254;2022-12-29T01:04:52;10.20;;;5.90;;
44987;SDS011;35735;52.226;21.254;2022-12-29T01:09:52;10.57;;;6.55;;
44987;SDS011;35735;52.226;21.254;2022-12-29T01:14:53;9.95;;;6.50;;
44987;SDS011;35735;52.226;21.254;2022-12-29T01:19:53;9.55;;;5.87;;
44987;SDS011;35735;52.226;21.254;2022-12-29T01:24:54;10.68;;;5.90;;
44987;SDS011;35735;52.226;21.254;2022-12-29T01:29:55;10.55;;;5.72;;
44987;SDS011;35735;52.226;21.254;2022-12-29T01:34:55;10.45;;;5.85;;
44987;SDS011;35735;52.226;21.254;2022-12-29T01:39:56;10.15;;;5.95;;
44987;SDS011;35735;52.226;21.254;2022-12-29T01:44:57;9.52;;;5.57;;
44987;SDS011;35735;52.226;21.254;2022-12-29T01:50:10;10.65;;;5.75;;
44987;SDS011;35735;52.226;21.254;2022-12-29T01:55:17;8.77;;;5.82;;
44987;SDS011;35735;52.226;21.254;2022-12-29T02:00:18;8.10;;;5.32;;
44987;SDS011;35735;52.226;21.254;2022-12-29T02:05:24;8.38;;;5.28;;
44987;SDS011;35735;52.226;21.254;2022-12-29T02:10:37;9.82;;;5.95;;
44987;SDS011;35735;52.226;21.254;2022-12-29T02:15:56;10.07;;;5.50;;
44987;SDS011;35735;52.226;21.254;2022-12-29T02:21:21;8.07;;;5.03;;
44987;SDS011;35735;52.226;21.254;2022-12-29T02:26:43;7.50;;;5.07;;
44987;SDS011;35735;52.226;21.254;2022-12-29T02:37:42;8.45;;;4.82;;
44987;SDS011;35735;52.226;21.254;2022-12-29T02:53:21;9.82;;;5.37;;
44987;SDS011;35735;52.226;21.254;2022-12-29T02:58:23;9.15;;;5.00;;
44987;SDS011;35735;52.226;21.254;2022-12-29T03:14:15;10.32;;;5.00;;
44987;SDS011;35735;52.226;21.254;2022-12-29T03:19:30;9.90;;;5.60;;
44987;SDS011;35735;52.226;21.254;2022-12-29T03:24:38;8.43;;;5.20;;
44987;SDS011;35735;52.226;21.254;2022-12-29T03:29:46;8.27;;;4.53;;
44987;SDS011;35735;52.226;21.254;2022-12-29T03:34:52;6.65;;;4.53;;
44987;SDS011;35735;52.226;21.254;2022-12-29T03:39:53;9.23;;;5.10;;
44987;SDS011;35735;52.226;21.254;2022-12-29T03:44:55;9.05;;;5.15;;
44987;SDS011;35735;52.226;21.254;2022-12-29T03:49:56;9.30;;;5.30;;
44987;SDS011;35735;52.226;21.254;2022-12-29T03:54:57;7.68;;;5.00;;
44987;SDS011;35735;52.226;21.254;2022-12-29T03:59:58;11.68;;;5.80;;
44987;SDS011;35735;52.226;21.254;2022-12-29T04:04:58;12.40;;;6.25;;
44987;SDS011;35735;52.226;21.254;2022-12-29T04:09:59;15.63;;;9.52;;
44987;SDS011;35735;52.226;21.254;2022-12-29T04:14:59;15.93;;;8.13;;
44987;SDS011;35735;52.226;21.254;2022-12-29T04:20:00;10.80;;;6.37;;
44987;SDS011;35735;52.226;21.254;2022-12-29T04:25:00;11.73;;;6.80;;
44987;SDS011;35735;52.226;21.254;2022-12-29T04:30:01;13.13;;;7.15;;
44987;SDS011;35735;52.226;21.254;2022-12-29T04:35:02;11.95;;;6.72;;
44987;SDS011;35735;52.226;21.254;2022-12-29T04:40:03;16.20;;;8.05;;
44987;SDS011;35735;52.226;21.254;2022-12-29T04:45:05;14.20;;;7.50;;
44987;SDS011;35735;52.226;21.254;2022-12-29T04:50:06;13.82;;;8.02;;
44987;SDS011;35735;52.226;21.254;2022-12-29T04:55:07;13.05;;;7.62;;
44987;SDS011;35735;52.226;21.254;2022-12-29T05:00:08;13.60;;;7.78;;
44987;SDS011;35735;52.226;21.254;2022-12-29T05:05:09;10.73;;;7.10;;
44987;SDS011;35735;52.226;21.254;2022-12-29T05:10:10;14.38;;;7.95;;
44987;SDS011;35735;52.226;21.254;2022-12-29T05:15:11;12.43;;;7.97;;
44987;SDS011;35735;52.226;21.254;2022-12-29T05:20:11;12.35;;;7.43;;
44987;SDS011;35735;52.226;21.254;2022-12-29T05:25:12;12.10;;;7.37;;
44987;SDS011;35735;52.226;21.254;2022-12-29T05:30:13;13.18;;;7.32;;
44987;SDS011;35735;52.226;21.254;2022-12-29T05:35:13;13.32;;;7.97;;
44987;SDS011;35735;52.226;21.254;2022-12-29T05:40:14;13.98;;;8.00;;
44987;SDS011;35735;52.226;21.254;2022-12-29T05:45:14;14.32;;;7.85;;
44987;SDS011;35735;52.226;21.254;2022-12-29T05:50:15;12.23;;;7.70;;
44987;SDS011;35735;52.226;21.254;2022-12-29T05:55:16;12.95;;;7.20;;
44987;SDS011;35735;52.226;21.254;2022-12-29T06:00:16;12.10;;;7.65;;
44987;SDS011;35735;52.226;21.254;2022-12-29T06:05:17;11.00;;;6.70;;
44987;SDS011;35735;52.226;21.254;2022-12-29T06:10:18;13.43;;;7.35;;
44987;SDS011;35735;52.226;21.254;2022-12-29T06:15:18;12.07;;;7.10;;
44987;SDS011;35735;52.226;21.254;2022-12-29T06:20:19;13.65;;;7.65;;
44987;SDS011;35735;52.226;21.254;2022-12-29T06:25:19;13.15;;;7.55;;
44987;SDS011;35735;52.226;21.254;2022-12-29T06:30:20;13.07;;;7.22;;
44987;SDS011;35735;52.226;21.254;2022-12-29T06:35:20;11.23;;;6.90;;
44987;SDS011;35735;52.226;21.254;2022-12-29T06:40:21;12.20;;;7.55;;
44987;SDS011;35735;52.226;21.254;2022-12-29T06:45:22;13.98;;;7.53;;
44987;SDS011;35735;52.226;21.254;2022-12-29T06:50:24;12.63;;;7.68;;
44987;SDS011;35735;52.226;21.254;2022-12-29T06:55:24;14.63;;;7.55;;
44987;SDS011;35735;52.226;21.254;2022-12-29T07:00:25;12.25;;;7.12;;
44987;SDS011;35735;52.226;21.254;2022-12-29T07:05:26;13.07;;;6.85;;
44987;SDS011;35735;52.226;21.254;2022-12-29T07:10:27;14.18;;;7.47;;
44987;SDS011;35735;52.226;21.254;2022-12-29T07:15:28;12.57;;;7.37;;
44987;SDS011;35735;52.226;21.254;2022-12-29T07:20:28;12.57;;;7.20;;
44987;SDS011;35735;52.226;21.254;2022-12-29T07:25:29;13.18;;;7.70;;
44987;SDS011;35735;52.226;21.254;2022-12-29T07:30:30;12.88;;;7.30;;
44987;SDS011;35735;52.226;21.254;2022-12-29T07:35:30;13.50;;;7.45;;
44987;SDS011;35735;52.226;21.254;2022-12-29T07:40:31;11.30;;;7.15;;
44987;SDS011;35735;52.226;21.254;2022-12-29T07:45:31;13.20;;;6.95;;
44987;SDS011;35735;52.226;21.254;2022-12-29T07:50:32;11.82;;;7.03;;
44987;SDS011;35735;52.226;21.254;2022-12-29T07:55:33;13.48;;;7.30;;
44987;SDS011;35735;52.226;21.254;2022-12-29T08:00:34;14.85;;;7.25;;
44987;SDS011;35735;52.226;21.254;2022-12-29T08:05:34;10.68;;;6.57;;
44987;SDS011;35735;52.226;21.254;2022-12-29T08:10:35;12.32;;;7.25;;
44987;SDS011;35735;52.226;21.254;2022-12-29T08:15:36;12.07;;;7.47;;
44987;SDS011;35735;52.226;21.254;2022-12-29T08:20:37;14.02;;;7.12;;
44987;SDS011;35735;52.226;21.254;2022-12-29T08:25:37;13.73;;;7.57;;
44987;SDS011;35735;52.226;21.254;2022-12-29T08:30:38;12.32;;;7.47;;
44987;SDS011;35735;52.226;21.254;2022-12-29T08:35:39;12.55;;;7.07;;
44987;SDS011;35735;52.226;21.254;2022-12-29T08:40:39;11.20;;;6.47;;
44987;SDS011;35735;52.226;21.254;2022-12-29T08:45:40;11.25;;;6.78;;
44987;SDS011;35735;52.226;21.254;2022-12-29T08:50:42;12.05;;;7.20;;
44987;SDS011;35735;52.226;21.254;2022-12-29T08:55:46;12.05;;;7.20;;
44987;SDS011;35735;52.226;21.254;2022-12-29T09:00:54;10.80;;;6.78;;
44987;SDS011;35735;52.226;21.254;2022-12-29T09:05:56;11.43;;;6.72;;
44987;SDS011;35735;52.226;21.254;2022-12-29T09:11:05;11.93;;;7.07;;
44987;SDS011;35735;52.226;21.254;2022-12-29T09:16:10;11.38;;;6.57;;
44987;SDS011;35735;52.226;21.254;2022-12-29T09:21:11;13.20;;;6.72;;
44987;SDS011;35735;52.226;21.254;2022-12-29T09:26:13;11.50;;;6.30;;
44987;SDS011;35735;52.226;21.254;2022-12-29T09:31:13;9.60;;;5.60;;
44987;SDS011;35735;52.226;21.254;2022-12-29T09:36:14;9.05;;;5.72;;
44987;SDS011;35735;52.226;21.254;2022-12-29T09:41:19;11.48;;;5.68;;
44987;SDS011;35735;52.226;21.254;2022-12-29T09:46:38;7.87;;;5.10;;
44987;SDS011;35735;52.226;21.254;2022-12-29T09:51:53;8.07;;;5.15;;
44987;SDS011;35735;52.226;21.254;2022-12-29T09:57:00;9.88;;;5.00;;
44987;SDS011;35735;52.226;21.254;2022-12-29T10:02:04;8.40;;;5.18;;
44987;SDS011;35735;52.226;21.254;2022-12-29T10:07:28;9.88;;;5.43;;
44987;SDS011;35735;52.226;21.254;2022-12-29T10:23:46;7.45;;;4.97;;
44987;SDS011;35735;52.226;21.254;2022-12-29T10:28:57;9.25;;;5.45;;
44987;SDS011;35735;52.226;21.254;2022-12-29T10:34:19;10.30;;;5.70;;
44987;SDS011;35735;52.226;21.254;2022-12-29T10:39:40;8.52;;;5.15;;
44987;SDS011;35735;52.226;21.254;2022-12-29T10:44:45;9.93;;;5.35;;
44987;SDS011;35735;52.226;21.254;2022-12-29T10:49:46;7.62;;;5.18;;
44987;SDS011;35735;52.226;21.254;2022-12-29T10:54:52;8.77;;;5.37;;
44987;SDS011;35735;52.226;21.254;2022-12-29T11:00:00;8.32;;;5.72;;
44987;SDS011;35735;52.226;21.254;2022-12-29T11:11:08;8.02;;;5.05;;
44987;SDS011;35735;52.226;21.254;2022-12-29T11:16:11;7.68;;;4.93;;
44987;SDS011;35735;52.226;21.254;2022-12-29T11:21:30;9.35;;;5.43;;
44987;SDS011;35735;52.226;21.254;2022-12-29T11:26:36;10.00;;;5.47;;
44987;SDS011;35735;52.226;21.254;2022-12-29T11:31:46;8.30;;;5.37;;
44987;SDS011;35735;52.226;21.254;2022-12-29T11:36:58;13.82;;;5.72;;
44987;SDS011;35735;52.226;21.254;2022-12-29T11:42:05;8.70;;;6.10;;
44987;SDS011;35735;52.226;21.254;2022-12-29T11:47:21;10.80;;;5.60;;
44987;SDS011;35735;52.226;21.254;2022-12-29T11:52:28;9.43;;;5.72;;
44987;SDS011;35735;52.226;21.254;2022-12-29T11:57:32;9.60;;;5.78;;
44987;SDS011;35735;52.226;21.254;2022-12-29T12:02:35;10.45;;;5.78;;
44987;SDS011;35735;52.226;21.254;2022-12-29T12:07:50;10.27;;;5.50;;
44987;SDS011;35735;52.226;21.254;2022-12-29T12:13:17;11.43;;;6.12;;
44987;SDS011;35735;52.226;21.254;2022-12-29T12:18:33;10.15;;;6.55;;
44987;SDS011;35735;52.226;21.254;2022-12-29T12:29:41;11.45;;;5.90;;
44987;SDS011;35735;52.226;21.254;2022-12-29T12:34:59;12.00;;;6.15;;
44987;SDS011;35735;52.226;21.254;2022-12-29T12:45:48;13.05;;;7.10;;
44987;SDS011;35735;52.226;21.254;2022-12-29T12:56:43;14.90;;;8.77;;
44987;SDS011;35735;52.226;21.254;2022-12-29T13:18:20;11.63;;;6.87;;
44987;SDS011;35735;52.226;21.254;2022-12-29T13:23:50;11.40;;;6.90;;
44987;SDS011;35735;52.226;21.254;2022-12-29T13:34:30;15.98;;;7.25;;
44987;SDS011;35735;52.226;21.254;2022-12-29T13:39:51;13.60;;;8.27;;
44987;SDS011;35735;52.226;21.254;2022-12-29T13:45:03;13.75;;;7.82;;
44987;SDS011;35735;52.226;21.254;2022-12-29T13:50:14;11.52;;;7.00;;
44987;SDS011;35735;52.226;21.254;2022-12-29T14:00:46;12.13;;;7.28;;
44987;SDS011;35735;52.226;21.254;2022-12-29T14:06:05;14.25;;;6.90;;
44987;SDS011;35735;52.226;21.254;2022-12-29T14:11:15;11.10;;;7.35;;
44987;SDS011;35735;52.226;21.254;2022-12-29T14:16:25;11.82;;;7.75;;
44987;SDS011;35735;52.226;21.254;2022-12-29T14:21:34;13.13;;;6.90;;
44987;SDS011;35735;52.226;21.254;2022-12-29T14:26:35;14.73;;;6.78;;
44987;SDS011;35735;52.226;21.254;2022-12-29T14:31:35;17.67;;;9.02;;
44987;SDS011;35735;52.226;21.254;2022-12-29T14:36:40;17.25;;;8.65;;
44987;SDS011;35735;52.226;21.254;2022-12-29T14:41:43;14.70;;;7.55;;
44987;SDS011;35735;52.226;21.254;2022-12-29T14:46:46;12.13;;;7.43;;
44987;SDS011;35735;52.226;21.254;2022-12-29T14:52:04;10.57;;;7.25;;
44987;SDS011;35735;52.226;21.254;2022-12-29T15:02:40;15.10;;;6.68;;
44987;SDS011;35735;52.226;21.254;2022-12-29T15:07:47;10.60;;;6.07;;
44987;SDS011;35735;52.226;21.254;2022-12-29T15:12:52;12.32;;;6.82;;
44987;SDS011;35735;52.226;21.254;2022-12-29T15:17:55;10.77;;;6.50;;
44987;SDS011;35735;52.226;21.254;2022-12-29T15:22:57;11.85;;;6.65;;
44987;SDS011;35735;52.226;21.254;2022-12-29T15:28:03;10.98;;;6.85;;
44987;SDS011;35735;52.226;21.254;2022-12-29T15:33:19;12.40;;;6.85;;
44987;SDS011;35735;52.226;21.254;2022-12-29T15:38:24;11.85;;;7.32;;
44987;SDS011;35735;52.226;21.254;2022-12-29T15:48:47;10.52;;;6.90;;
44987;SDS011;35735;52.226;21.254;2022-12-29T15:53:48;15.10;;;7.28;;
44987;SDS011;35735;52.226;21.254;2022-12-29T15:58:51;10.85;;;6.90;;
44987;SDS011;35735;52.226;21.254;2022-12-29T16:03:52;13.23;;;7.65;;
44987;SDS011;35735;52.226;21.254;2022-12-29T16:09:36;11.70;;;7.47;;
44987;SDS011;35735;52.226;21.254;2022-12-29T16:14:20;18.50;;;7.80;;
44987;SDS011;35735;52.226;21.254;2022-12-29T16:19:39;14.57;;;8.63;;
44987;SDS011;35735;52.226;21.254;2022-12-29T16:24:43;11.80;;;7.57;;
44987;SDS011;35735;52.226;21.254;2022-12-29T16:29:43;15.07;;;8.10;;
44987;SDS011;35735;52.226;21.254;2022-12-29T16:34:44;13.25;;;9.13;;
44987;SDS011;35735;52.226;21.254;2022-12-29T16:39:45;18.12;;;10.50;;
44987;SDS011;35735;52.226;21.254;2022-12-29T16:44:45;18.45;;;9.43;;
44987;SDS011;35735;52.226;21.254;2022-12-29T16:49:48;18.52;;;10.63;;
44987;SDS011;35735;52.226;21.254;2022-12-29T16:54:52;15.00;;;9.52;;
44987;SDS011;35735;52.226;21.254;2022-12-29T17:00:04;15.45;;;8.90;;
44987;SDS011;35735;52.226;21.254;2022-12-29T17:05:19;13.73;;;9.38;;
44987;SDS011;35735;52.226;21.254;2022-12-29T17:10:19;15.30;;;9.45;;
44987;SDS011;35735;52.226;21.254;2022-12-29T17:20:29;14.40;;;8.15;;
44987;SDS011;35735;52.226;21.254;2022-12-29T17:25:31;13.48;;;7.50;;
44987;SDS011;35735;52.226;21.254;2022-12-29T17:30:35;13.23;;;7.60;;
44987;SDS011;35735;52.226;21.254;2022-12-29T17:35:36;13.35;;;8.40;;
44987;SDS011;35735;52.226;21.254;2022-12-29T17:40:37;18.17;;;8.77;;
44987;SDS011;35735;52.226;21.254;2022-12-29T17:45:38;16.08;;;9.23;;
44987;SDS011;35735;52.226;21.254;2022-12-29T17:50:39;13.57;;;8.63;;
44987;SDS011;35735;52.226;21.254;2022-12-29T17:55:40;16.85;;;8.75;;
44987;SDS011;35735;52.226;21.254;2022-12-29T18:00:42;15.85;;;8.63;;
44987;SDS011;35735;52.226;21.254;2022-12-29T18:05:42;15.32;;;8.73;;
44987;SDS011;35735;52.226;21.254;2022-12-29T18:10:44;12.60;;;7.97;;
44987;SDS011;35735;52.226;21.254;2022-12-29T18:15:45;12.02;;;7.75;;
44987;SDS011;35735;52.226;21.254;2022-12-29T18:20:46;13.07;;;7.70;;
44987;SDS011;35735;52.226;21.254;2022-12-29T18:25:52;12.70;;;8.18;;
44987;SDS011;35735;52.226;21.254;2022-12-29T18:30:59;13.82;;;7.95;;
44987;SDS011;35735;52.226;21.254;2022-12-29T18:36:01;13.30;;;7.80;;
44987;SDS011;35735;52.226;21.254;2022-12-29T18:41:04;11.70;;;7.97;;
44987;SDS011;35735;52.226;21.254;2022-12-29T18:46:05;12.90;;;7.97;;
44987;SDS011;35735;52.226;21.254;2022-12-29T18:51:06;13.23;;;8.73;;
44987;SDS011;35735;52.226;21.254;2022-12-29T18:56:14;13.50;;;8.18;;
44987;SDS011;35735;52.226;21.254;2022-12-29T19:01:18;16.12;;;9.25;;
44987;SDS011;35735;52.226;21.254;2022-12-29T19:06:21;13.88;;;8.32;;
44987;SDS011;35735;52.226;21.254;2022-12-29T19:11:22;13.55;;;8.95;;
44987;SDS011;35735;52.226;21.254;2022-12-29T19:16:22;14.87;;;8.95;;
44987;SDS011;35735;52.226;21.254;2022-12-29T19:21:23;14.35;;;8.73;;
44987;SDS011;35735;52.226;21.254;2022-12-29T19:26:26;13.55;;;8.95;;
44987;SDS011;35735;52.226;21.254;2022-12-29T19:31:30;14.70;;;8.88;;
44987;SDS011;35735;52.226;21.254;2022-12-29T19:36:30;18.33;;;11.07;;
44987;SDS011;35735;52.226;21.254;2022-12-29T19:41:31;15.18;;;9.43;;
44987;SDS011;35735;52.226;21.254;2022-12-29T19:46:32;20.80;;;10.60;;
44987;SDS011;35735;52.226;21.254;2022-12-29T19:51:32;19.98;;;10.55;;
44987;SDS011;35735;52.226;21.254;2022-12-29T19:56:33;15.57;;;9.73;;
44987;SDS011;35735;52.226;21.254;2022-12-29T20:01:34;15.45;;;9.60;;
44987;SDS011;35735;52.226;21.254;2022-12-29T20:06:34;14.98;;;9.60;;
44987;SDS011;35735;52.226;21.254;2022-12-29T20:11:35;17.08;;;9.77;;
44987;SDS011;35735;52.226;21.254;2022-12-29T20:16:35;18.45;;;9.93;;
44987;SDS011;35735;52.226;21.254;2022-12-29T20:21:36;16.70;;;9.55;;
44987;SDS011;35735;52.226;21.254;2022-12-29T20:26:37;14.95;;;9.90;;
44987;SDS011;35735;52.226;21.254;2022-12-29T20:31:37;16.37;;;9.20;;
44987;SDS011;35735;52.226;21.254;2022-12-29T20:36:40;14.77;;;9.68;;
44987;SDS011;35735;52.226;21.254;2022-12-29T20:41:44;14.98;;;9.48;;
44987;SDS011;35735;52.226;21.254;2022-12-29T20:46:45;17.62;;;9.63;;
44987;SDS011;35735;52.226;21.254;2022-12-29T20:51:45;13.85;;;9.40;;
44987;SDS011;35735;52.226;21.254;2022-12-29T20:56:46;14.85;;;9.50;;
44987;SDS011;35735;52.226;21.254;2022-12-29T21:01:47;14.18;;;9.10;;
44987;SDS011;35735;52.226;21.254;2022-12-29T21:06:47;17.67;;;9.68;;
44987;SDS011;35735;52.226;21.254;2022-12-29T21:11:48;14.45;;;9.27;;
44987;SDS011;35735;52.226;21.254;2022-12-29T21:16:48;14.43;;;9.45;;
44987;SDS011;35735;52.226;21.254;2022-12-29T21:21:49;13.90;;;8.80;;
44987;SDS011;35735;52.226;21.254;2022-12-29T21:26:49;14.77;;;9.13;;
44987;SDS011;35735;52.226;21.254;2022-12-29T21:31:50;13.50;;;8.80;;
44987;SDS011;35735;52.226;21.254;2022-12-29T21:36:50;16.55;;;9.65;;
44987;SDS011;35735;52.226;21.254;2022-12-29T21:41:51;13.43;;;9.00;;
44987;SDS011;35735;52.226;21.254;2022-12-29T21:46:52;12.60;;;8.38;;
44987;SDS011;35735;52.226;21.254;2022-12-29T21:51:52;12.37;;;8.73;;
44987;SDS011;35735;52.226;21.254;2022-12-29T21:56:53;15.40;;;8.90;;
44987;SDS011;35735;52.226;21.254;2022-12-29T22:01:53;15.85;;;9.25;;
44987;SDS011;35735;52.226;21.254;2022-12-29T22:06:54;14.40;;;9.20;;
44987;SDS011;35735;52.226;21.254;2022-12-29T22:11:54;16.92;;;8.77;;
44987;SDS011;35735;52.226;21.254;2022-12-29T22:16:55;15.18;;;9.68;;
44987;SDS011;35735;52.226;21.254;2022-12-29T22:21:56;12.77;;;8.90;;
44987;SDS011;35735;52.226;21.254;2022-12-29T22:26:56;15.75;;;9.07;;
44987;SDS011;35735;52.226;21.254;2022-12-29T22:31:57;17.55;;;9.30;;
44987;SDS011;35735;52.226;21.254;2022-12-29T22:36:58;14.60;;;9.48;;
44987;SDS011;35735;52.226;21.254;2022-12-29T22:41:58;16.50;;;9.35;;
44987;SDS011;35735;52.226;21.254;2022-12-29T22:46:59;14.07;;;9.10;;
44987;SDS011;35735;52.226;21.254;2022-12-29T22:52:00;14.80;;;9.10;;
44987;SDS011;35735;52.226;21.254;2022-12-29T22:57:02;14.70;;;8.80;;
44987;SDS011;35735;52.226;21.254;2022-12-29T23:02:03;14.45;;;9.90;;
44987;SDS011;35735;52.226;21.254;2022-12-29T23:07:04;15.38;;;9.88;;
44987;SDS011;35735;52.226;21.254;2022-12-29T23:12:05;15.18;;;9.43;;
44987;SDS011;35735;52.226;21.254;2022-12-29T23:17:05;13.85;;;9.30;;
44987;SDS011;35735;52.226;21.254;2022-12-29T23:22:06;14.68;;;8.35;;
44987;SDS011;35735;52.226;21.254;2022-12-29T23:27:07;16.52;;;8.98;;
44987;SDS011;35735;52.226;21.254;2022-12-29T23:32:07;15.35;;;9.70;;
44987;SDS011;35735;52.226;21.254;2022-12-29T23:37:08;15.70;;;8.90;;
44987;SDS011;35735;52.226;21.254;2022-12-29T23:42:08;14.00;;;9.18;;
44987;SDS011;35735;52.226;21.254;2022-12-29T23:47:09;14.60;;;9.45;;
44987;SDS011;35735;52.226;21.254;2022-12-29T23:52:10;16.08;;;9.25;;
44987;SDS011;35735;52.226;21.254;2022-12-29T23:57:10;13.48;;;8.90;;
